This is the latest recevied weather packets stored in our database for station/object YF9UAG-16. If no packets are shown the sender has not sent any weather packets the latest 10 day(s).
| Time | Temp. | Humidity | Pressure | Rain* | Wind** | Luminosity | Snow |
|---|---|---|---|---|---|---|---|
| 1777965768 | 30° C | 66% | 1007 hPa | - | - | 0 W/m² | - |
| 1777965446 | 30° C | 66% | 1007 hPa | - | - | 0 W/m² | - |
| 1777965124 | 30° C | 66% | 1007 hPa | - | - | 0 W/m² | - |
| 1777964802 | 30° C | 64% | 1007 hPa | - | - | 0 W/m² | - |
| 1777964480 | 30° C | 66% | 1007 hPa | - | - | 0 W/m² | - |
| 1777964158 | 30° C | 62% | 1007 hPa | - | - | 0 W/m² | - |
| 1777963835 | 30° C | 60% | 1007 hPa | - | - | 0 W/m² | - |
| 1777963514 | 31.11° C | 53% | 1006 hPa | - | - | 0 W/m² | - |
| 1777963192 | 30.56° C | 51% | 1006 hPa | - | - | 0 W/m² | - |
| 1777962870 | 31.11° C | 50% | 1006 hPa | - | - | 0 W/m² | - |
| 1777962547 | 32.78° C | 48% | 1006 hPa | - | - | 0 W/m² | - |
| 1777962225 | 33.89° C | 44% | 1006 hPa | - | - | 0 W/m² | - |
| 1777961903 | 36.11° C | 38% | 1006 hPa | - | - | 0 W/m² | - |
| 1777951454 | 30.56° C | 58% | 1008 hPa | - | - | 0 W/m² | - |
| 1777951132 | 30° C | 60% | 1008 hPa | - | - | 0 W/m² | - |
| 1777950810 | 30° C | 60% | 1008 hPa | - | - | 0 W/m² | - |
| 1777950488 | 30° C | 61% | 1008 hPa | - | - | 0 W/m² | - |
| 1777950166 | 29.44° C | 63% | 1008 hPa | - | - | 0 W/m² | - |
| 1777949844 | 28.89° C | 65% | 1008 hPa | - | - | 0 W/m² | - |
| 1777949522 | 29.44° C | 63% | 1008 hPa | - | - | 0 W/m² | - |
| 1777949200 | 28.89° C | 63% | 1008 hPa | - | - | 0 W/m² | - |
| 1777940383 | 22.78° C | 80% | 643 hPa | - | - | 0 W/m² | - |
| 1777940061 | 22.78° C | 80% | 643 hPa | - | - | 0 W/m² | - |
| 1777939739 | 22.78° C | 80% | 643 hPa | - | - | 0 W/m² | - |
| 1777939417 | 22.78° C | 80% | 643 hPa | - | - | 0 W/m² | - |
* Rain since midnight (hover to see other rain measurements)
** Current wind speed in m/s (hover to see current wind gust speed)